createdAt,value
2019-03-26T00:01:22.882Z,94331.45
2019-03-26T00:03:49.557Z,94328.05
2019-03-26T00:06:16.197Z,94335.70
2019-03-26T00:08:42.835Z,94337.05
2019-03-26T00:11:09.499Z,94337.00
2019-03-26T00:13:36.236Z,94336.24
2019-03-26T00:16:02.883Z,94340.66
2019-03-26T00:18:29.520Z,94338.47
2019-03-26T00:20:56.196Z,94345.95
2019-03-26T00:23:22.931Z,94346.03
2019-03-26T00:25:49.572Z,94358.56
2019-03-26T00:28:16.226Z,94356.80
2019-03-26T00:30:42.859Z,94359.86
2019-03-26T00:33:09.548Z,94364.42
2019-03-26T00:35:36.259Z,94364.54
2019-03-26T00:38:02.896Z,94371.20
2019-03-26T00:40:29.716Z,94381.53
2019-03-26T00:42:56.364Z,94381.91
2019-03-26T00:48:10.387Z,94391.55
2019-03-26T00:50:37.087Z,94396.47
2019-03-26T00:53:03.736Z,94400.18
2019-03-26T00:55:30.376Z,94408.75
2019-03-26T00:57:57.029Z,94405.14
2019-03-26T01:00:23.680Z,94409.12
2019-03-26T01:02:50.329Z,94405.22
2019-03-26T01:05:16.972Z,94408.55
2019-03-26T01:07:43.605Z,94409.19
2019-03-26T01:10:12.302Z,94411.43
2019-03-26T01:12:36.965Z,94411.17
2019-03-26T01:15:03.612Z,94417.16
2019-03-26T01:17:30.248Z,94415.33
2019-03-26T01:19:56.932Z,94418.12
2019-03-26T01:22:23.567Z,94419.30
2019-03-26T01:24:50.215Z,94417.34
2019-03-26T01:27:16.843Z,94412.00
2019-03-26T01:29:43.539Z,94416.20
2019-03-26T01:32:10.178Z,94420.48
2019-03-26T01:34:45.798Z,94419.09
2019-03-26T01:37:03.503Z,94417.47
2019-03-26T01:39:30.143Z,94422.00
2019-03-26T01:41:56.796Z,94426.17
2019-03-26T01:44:23.476Z,94427.97
2019-03-26T01:46:50.106Z,94428.20
2019-03-26T01:49:16.781Z,94435.00
2019-03-26T01:51:43.420Z,94438.05
2019-03-26T01:54:10.121Z,94443.94
2019-03-26T01:56:36.764Z,94444.80
2019-03-26T01:59:03.413Z,94441.85
2019-03-26T02:01:30.068Z,94447.06
2019-03-26T02:03:56.707Z,94441.27
2019-03-26T02:06:23.386Z,94445.55
2019-03-26T02:08:50.028Z,94452.42
2019-03-26T02:11:16.707Z,94453.80
2019-03-26T02:13:43.357Z,94458.85
2019-03-26T02:16:10.004Z,94457.25
2019-03-26T02:18:36.640Z,94456.50
2019-03-26T02:21:03.314Z,94461.17
2019-03-26T02:23:29.953Z,94457.63
2019-03-26T02:25:56.595Z,94454.72
2019-03-26T02:28:23.231Z,94465.42
2019-03-26T02:30:50.018Z,94466.05
2019-03-26T02:33:16.655Z,94466.34
2019-03-26T02:35:43.274Z,94461.56
2019-03-26T02:38:09.930Z,94472.15
2019-03-26T02:40:36.568Z,94477.98
2019-03-26T02:43:03.253Z,94480.73
2019-03-26T02:45:29.981Z,94481.85
2019-03-26T02:47:56.639Z,94494.72
2019-03-26T02:50:23.388Z,94486.50
2019-03-26T02:52:49.977Z,94489.86
2019-03-26T02:55:16.623Z,94493.00
2019-03-26T02:57:43.273Z,94507.52
2019-03-26T03:00:09.907Z,94507.10
2019-03-26T03:02:36.549Z,94513.89
2019-03-26T03:05:03.213Z,94517.59
2019-03-26T03:07:29.872Z,94518.34
2019-03-26T03:09:56.515Z,94524.81
2019-03-26T03:12:23.163Z,94522.80
2019-03-26T03:14:49.815Z,94532.49
2019-03-26T03:17:16.446Z,94536.35
2019-03-26T03:19:43.083Z,94539.70
2019-03-26T03:22:09.734Z,94543.22
2019-03-26T03:24:36.383Z,94544.52
2019-03-26T03:27:03.059Z,94553.84
2019-03-26T03:29:29.761Z,94550.83
2019-03-26T03:31:56.508Z,94561.86
2019-03-26T03:34:23.089Z,94565.80
2019-03-26T03:36:49.715Z,94574.05
2019-03-26T03:39:16.451Z,94572.55
2019-03-26T03:41:43.086Z,94576.58
2019-03-26T03:44:09.729Z,94584.38
2019-03-26T03:46:36.376Z,94584.16
2019-03-26T03:49:03.024Z,94587.84
2019-03-26T03:51:29.675Z,94588.15
2019-03-26T03:53:56.337Z,94598.71
2019-03-26T03:56:22.967Z,94605.13
2019-03-26T03:58:49.595Z,94598.16
2019-03-26T04:01:16.276Z,94600.09
2019-03-26T04:03:42.921Z,94598.04
2019-03-26T04:06:10.364Z,94604.56
2019-03-26T04:08:36.269Z,94616.56
2019-03-26T04:11:02.912Z,94609.73
2019-03-26T04:13:29.651Z,94610.36
2019-03-26T04:15:56.220Z,94625.13
2019-03-26T04:18:22.839Z,94625.32
2019-03-26T04:20:49.485Z,94638.72
2019-03-26T04:23:16.169Z,94638.84
2019-03-26T04:25:42.799Z,94645.85
2019-03-26T04:28:09.443Z,94652.21
2019-03-26T04:30:36.081Z,94650.77
2019-03-26T04:33:02.740Z,94658.35
2019-03-26T04:35:29.426Z,94648.30
2019-03-26T04:37:56.078Z,94659.22
2019-03-26T04:40:22.715Z,94663.62
2019-03-26T04:42:49.371Z,94664.09
2019-03-26T04:45:16.028Z,94669.59
2019-03-26T04:47:42.675Z,94674.31
2019-03-26T04:50:09.323Z,94675.06
2019-03-26T04:52:35.970Z,94671.13
2019-03-26T04:55:02.623Z,94677.70
2019-03-26T04:57:29.276Z,94683.49
2019-03-26T04:59:55.928Z,94690.03
2019-03-26T05:02:22.609Z,94687.77
2019-03-26T05:04:49.233Z,94682.48
2019-03-26T05:07:15.879Z,94695.06
2019-03-26T05:09:42.558Z,94702.73
2019-03-26T05:12:09.197Z,94703.75
2019-03-26T05:14:35.877Z,94709.76
2019-03-26T05:17:02.506Z,94712.20
2019-03-26T05:19:29.185Z,94714.73
2019-03-26T05:21:55.876Z,94715.22
2019-03-26T05:24:22.521Z,94720.06
2019-03-26T05:26:49.170Z,94727.42
2019-03-26T05:29:15.819Z,94728.41
2019-03-26T05:31:42.460Z,94730.59
2019-03-26T05:34:09.153Z,94720.77
2019-03-26T05:36:35.798Z,94726.66
2019-03-26T05:39:02.423Z,94733.09
2019-03-26T05:41:29.066Z,94737.75
2019-03-26T05:43:55.748Z,94742.73
2019-03-26T05:46:22.436Z,94736.38
2019-03-26T05:48:49.121Z,94744.45
2019-03-26T05:51:15.782Z,94744.10
2019-03-26T05:53:42.428Z,94742.64
2019-03-26T05:56:09.067Z,94744.58
2019-03-26T05:58:35.705Z,94735.77
2019-03-26T06:01:02.351Z,94745.53
2019-03-26T06:03:28.988Z,94751.25
2019-03-26T06:05:55.694Z,94745.20
2019-03-26T06:08:22.362Z,94752.02
2019-03-26T06:10:49.075Z,94754.67
2019-03-26T06:13:15.722Z,94750.34
2019-03-26T06:15:42.360Z,94749.52
2019-03-26T06:18:09.014Z,94754.28
2019-03-26T06:20:35.648Z,94761.78
2019-03-26T06:23:02.290Z,94763.55
2019-03-26T06:25:28.929Z,94761.39
2019-03-26T06:27:55.586Z,94768.23
2019-03-26T06:30:22.225Z,94771.55
2019-03-26T06:32:48.905Z,94773.78
2019-03-26T06:35:15.580Z,94774.28
2019-03-26T06:37:42.233Z,94774.83
2019-03-26T06:40:08.885Z,94773.98
2019-03-26T06:42:35.657Z,94783.62
2019-03-26T06:45:02.302Z,94777.16
2019-03-26T06:47:28.986Z,94780.07
2019-03-26T06:49:56.738Z,94789.99
2019-03-26T06:52:23.394Z,94788.63
2019-03-26T06:54:51.703Z,94782.70
2019-03-26T06:57:16.778Z,94789.28
2019-03-26T06:59:43.414Z,94777.48
2019-03-26T07:02:10.058Z,94788.69
2019-03-26T07:04:36.713Z,94790.73
2019-03-26T07:07:03.423Z,94784.56
2019-03-26T07:09:30.056Z,94793.30
2019-03-26T07:11:56.707Z,94795.36
2019-03-26T07:14:23.473Z,94793.56
2019-03-26T07:16:50.073Z,94792.80
2019-03-26T07:19:16.791Z,94801.64
2019-03-26T07:21:49.522Z,94798.33
2019-03-26T07:24:10.014Z,94802.48
2019-03-26T07:26:36.655Z,94804.42
2019-03-26T07:29:03.340Z,94802.70
2019-03-26T07:31:29.992Z,94809.39
2019-03-26T07:33:56.662Z,94808.00
2019-03-26T07:36:23.322Z,94804.11
2019-03-26T07:38:50.029Z,94815.92
2019-03-26T07:41:16.687Z,94801.86
2019-03-26T07:43:43.340Z,94811.46
2019-03-26T07:46:09.989Z,94807.80
2019-03-26T07:48:36.690Z,94820.42
2019-03-26T07:51:03.337Z,94815.42
2019-03-26T07:53:29.974Z,94820.24
2019-03-26T07:55:56.633Z,94819.11
2019-03-26T07:58:23.304Z,94825.95
2019-03-26T08:00:49.963Z,94821.94
2019-03-26T08:03:16.630Z,94825.86
2019-03-26T08:05:43.313Z,94824.59
2019-03-26T08:08:09.957Z,94824.69
2019-03-26T08:10:36.643Z,94827.52
2019-03-26T08:13:03.460Z,94827.88
2019-03-26T08:15:30.109Z,94821.99
2019-03-26T08:17:56.779Z,94830.58
2019-03-26T08:20:23.478Z,94821.50
2019-03-26T08:22:50.138Z,94834.33
2019-03-26T08:25:16.778Z,94827.66
2019-03-26T08:27:43.431Z,94830.98
2019-03-26T08:30:10.202Z,94835.66
2019-03-26T08:32:37.279Z,94835.59
2019-03-26T08:35:03.591Z,94837.14
2019-03-26T08:37:30.293Z,94840.44
2019-03-26T08:39:56.930Z,94845.56
2019-03-26T08:42:23.589Z,94841.73
2019-03-26T08:44:50.342Z,94850.99
2019-03-26T08:47:17.027Z,94836.64
2019-03-26T08:49:43.684Z,94838.98
2019-03-26T08:52:10.466Z,94842.30
2019-03-26T08:54:37.104Z,94846.44
2019-03-26T08:57:03.907Z,94843.31
2019-03-26T08:59:30.476Z,94845.11
2019-03-26T09:01:57.159Z,94849.27
2019-03-26T09:04:26.764Z,94850.47
2019-03-26T09:06:53.405Z,94850.50
2019-03-26T09:09:20.051Z,94849.00
2019-03-26T09:11:46.700Z,94847.95
2019-03-26T09:14:13.384Z,94845.91
2019-03-26T09:16:40.081Z,94835.42
2019-03-26T09:19:06.772Z,94848.47
2019-03-26T09:21:33.409Z,94848.74
2019-03-26T09:24:00.871Z,94848.47
2019-03-26T09:26:27.533Z,94838.30
2019-03-26T09:28:54.190Z,94845.92
2019-03-26T09:31:20.824Z,94845.12
2019-03-26T09:33:47.600Z,94851.41
2019-03-26T09:36:14.239Z,94846.30
2019-03-26T09:38:40.939Z,94846.73
2019-03-26T09:41:07.644Z,94853.67
2019-03-26T09:43:34.277Z,94848.70
2019-03-26T09:46:00.989Z,94853.52
2019-03-26T09:48:27.727Z,94853.07
2019-03-26T09:50:54.358Z,94854.84
2019-03-26T09:53:21.021Z,94860.27
2019-03-26T09:55:47.715Z,94847.95
2019-03-26T09:58:14.435Z,94864.37
2019-03-26T10:00:41.131Z,94851.56
2019-03-26T10:03:07.758Z,94861.02
2019-03-26T10:05:34.395Z,94868.44
2019-03-26T10:08:01.102Z,94869.48
2019-03-26T10:10:27.744Z,94869.83
2019-03-26T10:12:54.392Z,94867.08
2019-03-26T10:15:21.039Z,94867.77
2019-03-26T10:17:47.695Z,94873.25
2019-03-26T10:20:14.359Z,94872.50
2019-03-26T10:22:41.008Z,94868.70
2019-03-26T10:25:10.659Z,94874.58
2019-03-26T10:27:35.179Z,94875.40
2019-03-26T10:30:00.991Z,94877.78
2019-03-26T10:32:27.682Z,94864.64
2019-03-26T10:34:54.328Z,94870.17
2019-03-26T10:37:20.971Z,94876.95
2019-03-26T10:39:47.649Z,94870.03
2019-03-26T10:42:14.380Z,94868.11
2019-03-26T10:44:41.037Z,94861.69
2019-03-26T10:47:07.675Z,94872.78
2019-03-26T10:49:34.321Z,94876.45
2019-03-26T10:52:00.979Z,94882.58
2019-03-26T10:54:27.620Z,94870.20
2019-03-26T10:56:54.305Z,94874.58
2019-03-26T10:59:20.941Z,94873.00
2019-03-26T11:01:47.603Z,94870.97
2019-03-26T11:04:14.243Z,94879.19
2019-03-26T11:06:40.895Z,94865.69
2019-03-26T11:09:20.087Z,94874.62
2019-03-26T11:11:34.330Z,94875.00
2019-03-26T11:14:00.984Z,94866.86
2019-03-26T11:16:27.633Z,94856.42
2019-03-26T11:18:54.294Z,94863.87
2019-03-26T11:21:20.940Z,94861.39
2019-03-26T11:23:47.593Z,94866.45
2019-03-26T11:26:14.317Z,94868.03
2019-03-26T11:28:40.931Z,94867.91
2019-03-26T11:31:07.595Z,94862.86
2019-03-26T11:33:34.241Z,94870.32
2019-03-26T11:36:00.883Z,94872.39
2019-03-26T11:38:27.559Z,94876.65
2019-03-26T11:40:54.217Z,94868.22
2019-03-26T11:43:20.852Z,94871.59
2019-03-26T11:45:48.683Z,94865.15
2019-03-26T11:48:15.325Z,94865.05
2019-03-26T11:50:41.964Z,94874.48
2019-03-26T11:53:08.615Z,94870.43
2019-03-26T11:55:35.331Z,94872.01
2019-03-26T11:58:01.989Z,94870.32
2019-03-26T12:00:28.666Z,94876.69
2019-03-26T12:02:55.479Z,94866.78
2019-03-26T12:05:22.132Z,94879.39
2019-03-26T12:07:48.781Z,94876.34
2019-03-26T12:10:15.421Z,94879.66
2019-03-26T12:12:42.063Z,94882.83
2019-03-26T12:15:08.843Z,94882.64
2019-03-26T12:17:35.503Z,94880.24
2019-03-26T12:20:02.164Z,94887.73
2019-03-26T12:22:34.577Z,94880.30
2019-03-26T12:25:01.228Z,94884.98
2019-03-26T12:27:27.880Z,94883.48
2019-03-26T12:29:54.528Z,94887.24
2019-03-26T12:32:21.226Z,94879.71
2019-03-26T12:34:47.897Z,94897.16
2019-03-26T12:37:14.541Z,94902.52
2019-03-26T12:39:44.070Z,94906.24
2019-03-26T12:42:07.910Z,94907.69
2019-03-26T12:44:34.579Z,94918.53
2019-03-26T12:47:01.242Z,94916.08
2019-03-26T12:49:27.895Z,94924.20
2019-03-26T12:51:54.612Z,94923.98
2019-03-26T12:54:23.903Z,94927.98
2019-03-26T12:56:50.560Z,94935.41
2019-03-26T12:59:17.245Z,94927.58
2019-03-26T13:01:44.071Z,94938.15
2019-03-26T13:04:13.312Z,94944.63
2019-03-26T13:06:37.486Z,94950.78
2019-03-26T13:09:04.138Z,94949.64
2019-03-26T13:11:30.776Z,94943.44
2019-03-26T13:13:57.434Z,94953.91
2019-03-26T13:16:24.069Z,94947.19
2019-03-26T13:18:50.706Z,94950.09
2019-03-26T13:21:17.360Z,94943.82
2019-03-26T13:23:43.996Z,94958.11
2019-03-26T13:26:10.649Z,94957.46
2019-03-26T13:28:37.293Z,94957.42
2019-03-26T13:31:03.955Z,94959.25
2019-03-26T13:33:30.621Z,94960.13
2019-03-26T13:35:57.254Z,94951.66
2019-03-26T13:38:23.908Z,94950.64
2019-03-26T13:40:50.550Z,94955.63
2019-03-26T13:43:17.306Z,94957.09
2019-03-26T13:45:43.956Z,94957.84
2019-03-26T13:48:10.605Z,94953.13
2019-03-26T13:50:37.303Z,94953.66
2019-03-26T13:53:03.946Z,94957.84
2019-03-26T13:55:30.626Z,94958.94
2019-03-26T13:57:57.330Z,94962.94
2019-03-26T14:00:23.980Z,94962.02
2019-03-26T14:02:50.662Z,94965.94
2019-03-26T14:05:17.321Z,94966.05
2019-03-26T14:07:44.003Z,94965.75
2019-03-26T14:10:10.617Z,94971.59
2019-03-26T14:12:37.307Z,94970.52
2019-03-26T14:15:03.964Z,94974.95
2019-03-26T14:17:30.578Z,94975.77
2019-03-26T14:19:57.230Z,94978.84
2019-03-26T14:22:23.929Z,94972.11
2019-03-26T14:24:50.673Z,94972.25
2019-03-26T14:27:17.306Z,94977.31
2019-03-26T14:29:43.963Z,94972.30
2019-03-26T14:32:10.600Z,94967.17
2019-03-26T14:34:37.293Z,94980.23
2019-03-26T14:37:04.033Z,94974.23
2019-03-26T14:39:30.642Z,94971.67
2019-03-26T14:41:57.294Z,94976.67
2019-03-26T14:44:23.947Z,94982.52
2019-03-26T14:46:50.602Z,94974.42
2019-03-26T14:49:17.264Z,94978.95
2019-03-26T14:51:43.909Z,94971.25
2019-03-26T14:54:10.594Z,94969.64
2019-03-26T14:56:37.240Z,94970.02
2019-03-26T14:59:03.928Z,94970.06
2019-03-26T15:01:30.902Z,94968.45
2019-03-26T15:03:59.420Z,94975.90
2019-03-26T15:06:26.072Z,94971.90
2019-03-26T15:08:52.712Z,94971.91
2019-03-26T15:11:19.419Z,94973.44
2019-03-26T15:13:49.328Z,94974.31
2019-03-26T15:16:12.826Z,94967.86
2019-03-26T15:18:39.567Z,94973.88
2019-03-26T15:21:06.211Z,94975.98
2019-03-26T15:23:32.856Z,94974.44
2019-03-26T15:25:59.498Z,94980.85
2019-03-26T15:28:26.176Z,94982.44
2019-03-26T15:30:52.838Z,94987.14
2019-03-26T15:33:19.485Z,94992.14
2019-03-26T15:35:46.153Z,94997.00
2019-03-26T15:38:12.822Z,95001.61
2019-03-26T15:40:39.456Z,94998.36
2019-03-26T15:43:06.151Z,95002.95
2019-03-26T15:45:32.792Z,94998.52
2019-03-26T15:47:59.441Z,95008.15
2019-03-26T15:50:26.078Z,95011.20
2019-03-26T15:52:52.728Z,95012.83
2019-03-26T15:55:19.449Z,95012.45
2019-03-26T15:57:46.149Z,95010.83
2019-03-26T16:00:12.781Z,95000.67
2019-03-26T16:02:39.449Z,95013.59
2019-03-26T16:05:06.086Z,95005.69
2019-03-26T16:07:33.222Z,95008.02
2019-03-26T16:09:59.574Z,95009.66
2019-03-26T16:12:26.244Z,95012.59
2019-03-26T16:14:52.913Z,95019.97
2019-03-26T16:17:19.607Z,95018.34
2019-03-26T16:19:46.250Z,95017.92
2019-03-26T16:22:12.928Z,95016.73
2019-03-26T16:24:39.567Z,95017.23
2019-03-26T16:27:06.210Z,95023.44
2019-03-26T16:29:32.877Z,95026.22
2019-03-26T16:31:59.553Z,95023.94
2019-03-26T16:34:27.463Z,95025.86
2019-03-26T16:36:59.330Z,95030.52
2019-03-26T16:39:19.537Z,95028.80
2019-03-26T16:41:49.325Z,95028.53
2019-03-26T16:44:12.849Z,95012.58
2019-03-26T16:46:39.513Z,95032.62
2019-03-26T16:49:06.151Z,95031.63
2019-03-26T16:51:32.830Z,95036.42
2019-03-26T16:53:59.539Z,95042.95
2019-03-26T16:56:26.193Z,95042.08
2019-03-26T16:58:52.845Z,95041.33
2019-03-26T17:01:19.496Z,95045.86
2019-03-26T17:03:46.182Z,95053.78
2019-03-26T17:06:12.813Z,95056.13
2019-03-26T17:08:39.505Z,95062.55
2019-03-26T17:11:06.148Z,95061.44
2019-03-26T17:13:32.789Z,95059.38
2019-03-26T17:15:59.433Z,95063.17
2019-03-26T17:18:26.099Z,95065.50
2019-03-26T17:20:52.752Z,95071.91
2019-03-26T17:23:19.394Z,95065.91
2019-03-26T17:25:46.077Z,95073.73
2019-03-26T17:28:12.711Z,95071.50
2019-03-26T17:30:39.351Z,95072.48
2019-03-26T17:33:06.001Z,95072.68
2019-03-26T17:35:32.641Z,95072.34
2019-03-26T17:38:00.380Z,95082.73
2019-03-26T17:40:25.955Z,95089.88
2019-03-26T17:42:52.636Z,95088.73
2019-03-26T17:45:19.279Z,95089.44
2019-03-26T17:47:45.924Z,95096.45
2019-03-26T17:50:12.563Z,95099.87
2019-03-26T17:52:42.137Z,95106.22
2019-03-26T17:55:08.877Z,95107.98
2019-03-26T17:57:35.577Z,95118.73
2019-03-26T18:00:02.261Z,95116.40
2019-03-26T18:02:28.936Z,95118.38
2019-03-26T18:04:55.627Z,95120.52
2019-03-26T18:07:22.272Z,95129.63
2019-03-26T18:09:48.907Z,95131.08
2019-03-26T18:12:15.582Z,95135.07
2019-03-26T18:14:42.191Z,95142.09
2019-03-26T18:17:08.871Z,95154.63
2019-03-26T18:19:35.514Z,95149.87
2019-03-26T18:22:02.189Z,95149.88
2019-03-26T18:24:30.814Z,95150.88
2019-03-26T18:26:57.555Z,95141.38
2019-03-26T18:29:24.155Z,95154.16
2019-03-26T18:31:50.799Z,95152.70
2019-03-26T18:34:17.460Z,95158.36
2019-03-26T18:36:44.100Z,95168.16
2019-03-26T18:39:10.738Z,95171.06
2019-03-26T18:41:37.400Z,95169.03
2019-03-26T18:44:04.038Z,95169.66
2019-03-26T18:46:30.722Z,95167.08
2019-03-26T18:48:57.386Z,95172.27
2019-03-26T18:51:24.031Z,95181.25
2019-03-26T18:53:50.720Z,95175.97
2019-03-26T18:56:17.350Z,95177.08
2019-03-26T18:58:44.040Z,95183.34
2019-03-26T19:01:10.679Z,95175.69
2019-03-26T19:03:37.352Z,95179.27
2019-03-26T19:06:04.092Z,95184.72
2019-03-26T19:08:30.776Z,95187.62
2019-03-26T19:10:57.498Z,95188.16
2019-03-26T19:13:24.119Z,95191.19
2019-03-26T19:15:50.752Z,95194.36
2019-03-26T19:18:17.392Z,95187.64
2019-03-26T19:20:44.032Z,95192.13
2019-03-26T19:23:10.688Z,95187.69
2019-03-26T19:25:37.325Z,95191.51
2019-03-26T19:28:04.016Z,95193.02
2019-03-26T19:30:30.651Z,95195.22
2019-03-26T19:32:57.811Z,95197.63
2019-03-26T19:35:23.960Z,95200.28
2019-03-26T19:37:50.605Z,95210.03
2019-03-26T19:40:17.243Z,95205.47
2019-03-26T19:42:43.932Z,95204.34
2019-03-26T19:45:10.576Z,95203.45
2019-03-26T19:47:37.224Z,95208.88
2019-03-26T19:50:03.866Z,95211.20
2019-03-26T19:52:30.547Z,95211.67
2019-03-26T19:54:57.293Z,95214.50
2019-03-26T19:57:23.979Z,95217.74
2019-03-26T19:59:50.630Z,95220.58
2019-03-26T20:02:17.271Z,95213.98
2019-03-26T20:04:43.915Z,95221.20
2019-03-26T20:07:10.600Z,95223.11
2019-03-26T20:09:37.247Z,95222.98
2019-03-26T20:12:03.879Z,95228.30
2019-03-26T20:14:30.526Z,95229.44
2019-03-26T20:16:57.158Z,95228.59
2019-03-26T20:19:23.853Z,95231.46
2019-03-26T20:21:52.474Z,95230.62
2019-03-26T20:24:19.114Z,95234.41
2019-03-26T20:26:45.829Z,95234.84
2019-03-26T20:29:12.470Z,95241.51
2019-03-26T20:31:39.144Z,95240.04
2019-03-26T20:34:05.798Z,95246.70
2019-03-26T20:36:32.483Z,95246.70
2019-03-26T20:38:59.120Z,95242.31
2019-03-26T20:41:25.756Z,95245.34
2019-03-26T20:43:52.404Z,95251.53
2019-03-26T20:46:19.079Z,95243.84
2019-03-26T20:48:45.725Z,95252.56
2019-03-26T20:51:12.365Z,95247.04
2019-03-26T20:53:39.044Z,95253.74
2019-03-26T20:56:05.692Z,95254.93
2019-03-26T20:58:32.379Z,95257.20
2019-03-26T21:00:59.025Z,95251.77
2019-03-26T21:03:25.671Z,95255.55
2019-03-26T21:05:52.336Z,95268.84
2019-03-26T21:08:19.009Z,95265.69
2019-03-26T21:10:45.647Z,95267.37
2019-03-26T21:13:12.323Z,95271.92
2019-03-26T21:15:38.961Z,95281.83
2019-03-26T21:18:05.607Z,95281.28
2019-03-26T21:20:32.239Z,95282.46
2019-03-26T21:22:58.938Z,95286.38
2019-03-26T21:25:25.581Z,95290.09
2019-03-26T21:27:52.277Z,95295.88
2019-03-26T21:30:18.918Z,95299.08
2019-03-26T21:32:45.607Z,95308.02
2019-03-26T21:35:12.272Z,95307.20
2019-03-26T21:37:38.899Z,95306.33
2019-03-26T21:40:05.652Z,95313.03
2019-03-26T21:42:32.274Z,95312.02
2019-03-26T21:44:58.913Z,95320.87
2019-03-26T21:47:25.651Z,95318.43
2019-03-26T21:49:52.302Z,95326.40
2019-03-26T21:52:18.937Z,95329.34
2019-03-26T21:54:45.574Z,95325.67
2019-03-26T21:57:12.255Z,95334.27
2019-03-26T21:59:38.898Z,95332.64
2019-03-26T22:02:05.573Z,95335.54
2019-03-26T22:04:32.205Z,95338.23
2019-03-26T22:06:58.891Z,95341.99
2019-03-26T22:09:25.537Z,95346.96
2019-03-26T22:11:52.217Z,95350.38
2019-03-26T22:14:18.906Z,95345.73
2019-03-26T22:16:45.560Z,95344.18
2019-03-26T22:19:12.327Z,95348.23
2019-03-26T22:21:38.883Z,95348.01
2019-03-26T22:24:05.563Z,95347.85
2019-03-26T22:26:32.226Z,95349.14
2019-03-26T22:28:58.887Z,95348.23
2019-03-26T22:31:25.522Z,95351.02
2019-03-26T22:33:52.164Z,95359.36
2019-03-26T22:36:18.797Z,95356.48
2019-03-26T22:38:45.470Z,95353.58
2019-03-26T22:41:12.243Z,95361.67
2019-03-26T22:43:38.881Z,95361.66
2019-03-26T22:46:05.565Z,95361.80
2019-03-26T22:48:32.241Z,95363.44
2019-03-26T22:50:58.880Z,95366.00
2019-03-26T22:53:25.550Z,95356.77
2019-03-26T22:55:52.188Z,95363.34
2019-03-26T22:58:18.865Z,95366.00
2019-03-26T23:00:45.509Z,95370.17
2019-03-26T23:03:12.200Z,95374.57
2019-03-26T23:05:38.847Z,95365.49
2019-03-26T23:08:05.481Z,95365.21
2019-03-26T23:10:32.177Z,95366.26
2019-03-26T23:12:58.813Z,95362.97
2019-03-26T23:15:25.565Z,95363.72
2019-03-26T23:17:52.231Z,95372.80
2019-03-26T23:20:18.879Z,95370.84
2019-03-26T23:22:45.527Z,95370.50
2019-03-26T23:25:12.167Z,95370.34
2019-03-26T23:27:38.819Z,95368.70
2019-03-26T23:30:05.466Z,95367.09
2019-03-26T23:32:32.105Z,95370.75
2019-03-26T23:34:58.744Z,95372.52
2019-03-26T23:37:25.439Z,95370.59
2019-03-26T23:39:52.134Z,95373.16
2019-03-26T23:42:18.757Z,95374.77
2019-03-26T23:44:57.788Z,95374.42
2019-03-26T23:47:12.108Z,95373.16
2019-03-26T23:49:38.745Z,95371.17
2019-03-26T23:52:05.417Z,95368.23
2019-03-26T23:54:32.079Z,95366.71
2019-03-26T23:56:58.736Z,95363.20
2019-03-26T23:59:25.369Z,95360.04
